Detall de PIREP

Printer-friendly versionPDF version

[2011/02/17 22:14:00]
Flight IATA:CT3105
Pilot Number:026
Company ICAO:CAT
Aircraft Type:DC85/A
PAX:132
Departing Airport: LFMP
Destination Airport: LIEA
Alternate Airport:LIEO
Online: VATSIM
Route:FJR UM731 PELOS
Flight Level:F330
No Slew and time accel
No pause
Crash detect
Detect pilot in Cockpit between each 30 and 45 minutes
22:14 Zero fuel Weight: 178902 Lbs, Fuel Weight: 24001 Lbs
22:14 VATSIM:LFMP 172200Z AUTO 30016KT 9999 SCT041 OVC048 07/04 Q1005
22:14 VATSIM:LIEA 172150Z 20006KT 9999 -RA BKN030 11/09 Q1002
22:14 VOICE CATALONIAN / INTERHUB ROUTE CT3105
22:18 Parking Brakes off
22:24 Take-off
22:24 Take off Weight: 202004 Lbs
22:24 Wind: 302º @ 016 Knots Heading: 325º
22:24 POS N42º 45´ 08´´ E002º 51´ 47´´
22:24 Flaps:3 at 171 Knots
22:24 Gear Up: 174 Knots
22:24 Flaps:2 at 174 Knots
22:25 Flaps:1 at 187 Knots
22:26 Flaps:0 at 173 Knots
22:39 Wind:004º@009 Knots Heading: 131º Ground Speed: 314 Knots Altitude 27575 ft
22:54 Wind:354º@066 Knots Heading: 119º Ground Speed: 462 Knots Altitude 30807 ft
23:09 Wind:058º@002 Knots Heading: 126º Ground Speed: 327 Knots Altitude 10774 ft
23:17 Flaps:1 at 213 Knots
23:17 Flaps:2 at 166 Knots
23:18 Gear Down: 161 Knots
23:19 Flaps:3 at 144 Knots
23:21 Flaps:4 at 148 Knots
23:22 Flaps:5 at 136 Knots
23:22 TouchDown:Rate -154 ft/min Speed: 126 Knots
23:22 VATSIM:LIEA 172250Z VRB02KT 9999 BKN030 10/10 Q1002
23:22 Land
23:22 Wind:269º@001 Knots
23:22 Heading: 209º
23:22 Flight Duration: 00:58
23:22 Landing Weight: 191793 Lbs
23:22 POS N40º 37´ 55´´ E008º 17´ 26´´
23:27 Parking brakes on
23:27 Block to Block Duration: 01:09
23:27 Final Fuel: 12535 Lbls
23:27 Spent Fuel: 11466 Lbls
23:27 Flight Length: 342 NM
23:27 TOD Land Length: 342 NM

Exportar CSV

Powered by Drupal - Modified by Danger4k